sensor_id;sensor_type;location;lat;lon;timestamp;P1;durP1;ratioP1;P2;durP2;ratioP2
50681;SDS011;36779;52.168;20.878;2024-01-11T00:36:22;81.60;;;24.00;;
50681;SDS011;36779;52.168;20.878;2024-01-11T00:49:23;88.60;;;25.90;;
50681;SDS011;36779;52.168;20.878;2024-01-11T01:24:22;84.00;;;22.80;;
50681;SDS011;36779;52.168;20.878;2024-01-11T01:27:12;88.70;;;22.90;;
50681;SDS011;36779;52.168;20.878;2024-01-11T01:29:57;72.80;;;20.80;;
50681;SDS011;36779;52.168;20.878;2024-01-11T01:32:52;94.80;;;25.90;;
50681;SDS011;36779;52.168;20.878;2024-01-11T01:35:42;98.00;;;26.60;;
50681;SDS011;36779;52.168;20.878;2024-01-11T02:10:32;31.00;;;10.00;;
50681;SDS011;36779;52.168;20.878;2024-01-11T02:37:37;74.20;;;22.60;;
50681;SDS011;36779;52.168;20.878;2024-01-11T03:16:16;74.30;;;22.10;;
50681;SDS011;36779;52.168;20.878;2024-01-11T03:20:47;83.90;;;21.90;;
50681;SDS011;36779;52.168;20.878;2024-01-11T03:32:54;67.70;;;17.20;;
50681;SDS011;36779;52.168;20.878;2024-01-11T03:35:44;70.00;;;18.60;;
50681;SDS011;36779;52.168;20.878;2024-01-11T03:38:36;34.20;;;11.80;;
50681;SDS011;36779;52.168;20.878;2024-01-11T03:42:40;63.10;;;19.00;;
50681;SDS011;36779;52.168;20.878;2024-01-11T03:45:24;75.70;;;19.90;;
50681;SDS011;36779;52.168;20.878;2024-01-11T03:53:04;83.10;;;20.10;;
50681;SDS011;36779;52.168;20.878;2024-01-11T03:55:56;65.00;;;18.60;;
50681;SDS011;36779;52.168;20.878;2024-01-11T03:58:48;74.10;;;20.60;;
50681;SDS011;36779;52.168;20.878;2024-01-11T04:01:40;54.90;;;17.50;;
50681;SDS011;36779;52.168;20.878;2024-01-11T04:04:13;66.80;;;17.10;;
50681;SDS011;36779;52.168;20.878;2024-01-11T04:06:56;60.60;;;17.80;;
50681;SDS011;36779;52.168;20.878;2024-01-11T04:09:47;34.80;;;10.90;;
50681;SDS011;36779;52.168;20.878;2024-01-11T04:12:27;76.00;;;19.60;;
50681;SDS011;36779;52.168;20.878;2024-01-11T04:15:18;66.10;;;19.90;;
50681;SDS011;36779;52.168;20.878;2024-01-11T04:18:26;72.10;;;19.80;;
50681;SDS011;36779;52.168;20.878;2024-01-11T04:21:22;69.10;;;19.90;;
50681;SDS011;36779;52.168;20.878;2024-01-11T04:24:12;66.60;;;19.60;;
50681;SDS011;36779;52.168;20.878;2024-01-11T04:27:02;72.60;;;19.90;;
50681;SDS011;36779;52.168;20.878;2024-01-11T04:39:37;55.30;;;14.50;;
50681;SDS011;36779;52.168;20.878;2024-01-11T04:43:01;45.40;;;12.90;;
50681;SDS011;36779;52.168;20.878;2024-01-11T05:42:42;53.70;;;13.70;;
50681;SDS011;36779;52.168;20.878;2024-01-11T05:50:23;45.70;;;12.60;;
50681;SDS011;36779;52.168;20.878;2024-01-11T05:58:04;45.80;;;12.60;;
50681;SDS011;36779;52.168;20.878;2024-01-11T06:00:56;21.60;;;7.30;;
50681;SDS011;36779;52.168;20.878;2024-01-11T06:07:57;52.50;;;12.80;;
50681;SDS011;36779;52.168;20.878;2024-01-11T06:10:47;44.00;;;12.10;;
50681;SDS011;36779;52.168;20.878;2024-01-11T06:18:29;56.30;;;15.70;;
50681;SDS011;36779;52.168;20.878;2024-01-11T06:21:19;34.90;;;10.40;;
50681;SDS011;36779;52.168;20.878;2024-01-11T06:27:47;35.30;;;10.40;;
50681;SDS011;36779;52.168;20.878;2024-01-11T06:30:39;35.50;;;10.20;;
50681;SDS011;36779;52.168;20.878;2024-01-11T06:33:29;39.10;;;11.30;;
50681;SDS011;36779;52.168;20.878;2024-01-11T06:36:24;46.90;;;12.00;;
50681;SDS011;36779;52.168;20.878;2024-01-11T06:59:09;31.70;;;9.60;;
50681;SDS011;36779;52.168;20.878;2024-01-11T07:02:02;33.10;;;9.70;;
50681;SDS011;36779;52.168;20.878;2024-01-11T07:14:38;16.60;;;6.00;;
50681;SDS011;36779;52.168;20.878;2024-01-11T07:17:28;41.20;;;10.30;;
50681;SDS011;36779;52.168;20.878;2024-01-11T07:25:08;37.70;;;9.60;;
50681;SDS011;36779;52.168;20.878;2024-01-11T07:37:42;38.80;;;11.60;;
50681;SDS011;36779;52.168;20.878;2024-01-11T07:40:23;42.60;;;10.30;;
50681;SDS011;36779;52.168;20.878;2024-01-11T08:02:29;34.20;;;8.50;;
50681;SDS011;36779;52.168;20.878;2024-01-11T08:10:09;40.60;;;10.60;;
50681;SDS011;36779;52.168;20.878;2024-01-11T08:36:26;21.10;;;6.70;;
50681;SDS011;36779;52.168;20.878;2024-01-11T08:39:20;41.90;;;11.50;;
50681;SDS011;36779;52.168;20.878;2024-01-11T08:56:39;38.80;;;10.80;;
50681;SDS011;36779;52.168;20.878;2024-01-11T09:17:47;35.10;;;11.30;;
50681;SDS011;36779;52.168;20.878;2024-01-11T09:55:01;34.60;;;9.90;;
50681;SDS011;36779;52.168;20.878;2024-01-11T09:57:55;36.30;;;8.60;;
50681;SDS011;36779;52.168;20.878;2024-01-11T10:00:54;32.50;;;9.30;;
50681;SDS011;36779;52.168;20.878;2024-01-11T10:03:51;34.50;;;8.30;;
50681;SDS011;36779;52.168;20.878;2024-01-11T10:06:45;35.20;;;9.60;;
50681;SDS011;36779;52.168;20.878;2024-01-11T10:09:41;34.40;;;10.20;;
50681;SDS011;36779;52.168;20.878;2024-01-11T10:12:35;50.00;;;11.00;;
50681;SDS011;36779;52.168;20.878;2024-01-11T10:15:28;40.50;;;10.80;;
50681;SDS011;36779;52.168;20.878;2024-01-11T10:49:57;28.00;;;6.90;;
50681;SDS011;36779;52.168;20.878;2024-01-11T10:53:03;24.70;;;8.00;;
50681;SDS011;36779;52.168;20.878;2024-01-11T10:56:08;38.20;;;10.90;;
50681;SDS011;36779;52.168;20.878;2024-01-11T10:59:02;39.00;;;10.80;;
50681;SDS011;36779;52.168;20.878;2024-01-11T11:02:08;49.50;;;12.10;;
50681;SDS011;36779;52.168;20.878;2024-01-11T11:08:14;40.80;;;11.60;;
50681;SDS011;36779;52.168;20.878;2024-01-11T11:11:10;25.20;;;7.60;;
50681;SDS011;36779;52.168;20.878;2024-01-11T11:14:05;50.60;;;13.60;;
50681;SDS011;36779;52.168;20.878;2024-01-11T11:20:17;42.70;;;11.70;;
50681;SDS011;36779;52.168;20.878;2024-01-11T12:10:34;45.50;;;10.90;;
50681;SDS011;36779;52.168;20.878;2024-01-11T12:13:22;44.10;;;12.80;;
50681;SDS011;36779;52.168;20.878;2024-01-11T12:17:36;50.30;;;12.30;;
50681;SDS011;36779;52.168;20.878;2024-01-11T12:20:32;49.90;;;12.10;;
50681;SDS011;36779;52.168;20.878;2024-01-11T12:23:25;40.50;;;10.90;;
50681;SDS011;36779;52.168;20.878;2024-01-11T12:26:13;32.10;;;8.50;;
50681;SDS011;36779;52.168;20.878;2024-01-11T12:29:13;31.50;;;10.40;;
50681;SDS011;36779;52.168;20.878;2024-01-11T12:32:08;31.00;;;8.50;;
50681;SDS011;36779;52.168;20.878;2024-01-11T12:35:02;55.00;;;11.80;;
50681;SDS011;36779;52.168;20.878;2024-01-11T12:38:00;73.10;;;16.60;;
50681;SDS011;36779;52.168;20.878;2024-01-11T12:41:06;55.90;;;13.90;;
50681;SDS011;36779;52.168;20.878;2024-01-11T12:44:00;46.00;;;12.90;;
50681;SDS011;36779;52.168;20.878;2024-01-11T12:47:04;50.90;;;14.20;;
50681;SDS011;36779;52.168;20.878;2024-01-11T12:50:00;54.90;;;13.90;;
50681;SDS011;36779;52.168;20.878;2024-01-11T12:52:40;50.90;;;14.60;;
50681;SDS011;36779;52.168;20.878;2024-01-11T12:56:01;34.70;;;9.80;;
50681;SDS011;36779;52.168;20.878;2024-01-11T13:19:07;49.30;;;14.60;;
50681;SDS011;36779;52.168;20.878;2024-01-11T13:27:45;52.70;;;14.00;;
50681;SDS011;36779;52.168;20.878;2024-01-11T13:30:26;52.00;;;12.70;;
50681;SDS011;36779;52.168;20.878;2024-01-11T13:33:19;38.80;;;8.50;;
50681;SDS011;36779;52.168;20.878;2024-01-11T13:36:13;41.80;;;11.90;;
50681;SDS011;36779;52.168;20.878;2024-01-11T13:39:11;43.20;;;12.40;;
50681;SDS011;36779;52.168;20.878;2024-01-11T13:42:10;36.30;;;10.80;;
50681;SDS011;36779;52.168;20.878;2024-01-11T13:45:03;30.90;;;9.10;;
50681;SDS011;36779;52.168;20.878;2024-01-11T13:48:05;48.60;;;14.20;;
50681;SDS011;36779;52.168;20.878;2024-01-11T13:55:08;63.10;;;17.30;;
50681;SDS011;36779;52.168;20.878;2024-01-11T13:58:06;69.20;;;17.20;;
50681;SDS011;36779;52.168;20.878;2024-01-11T14:01:09;58.20;;;14.30;;
50681;SDS011;36779;52.168;20.878;2024-01-11T14:04:04;68.80;;;19.70;;
50681;SDS011;36779;52.168;20.878;2024-01-11T14:06:55;57.00;;;16.00;;
50681;SDS011;36779;52.168;20.878;2024-01-11T14:09:51;60.30;;;18.20;;
50681;SDS011;36779;52.168;20.878;2024-01-11T14:12:50;65.40;;;16.70;;
50681;SDS011;36779;52.168;20.878;2024-01-11T14:55:15;65.30;;;19.80;;
50681;SDS011;36779;52.168;20.878;2024-01-11T15:17:21;62.70;;;17.90;;
50681;SDS011;36779;52.168;20.878;2024-01-11T15:20:12;65.30;;;17.20;;
50681;SDS011;36779;52.168;20.878;2024-01-11T15:23:04;46.50;;;15.30;;
50681;SDS011;36779;52.168;20.878;2024-01-11T15:25:54;49.20;;;15.60;;
50681;SDS011;36779;52.168;20.878;2024-01-11T15:28:38;48.10;;;14.10;;
50681;SDS011;36779;52.168;20.878;2024-01-11T15:31:29;43.70;;;14.40;;
50681;SDS011;36779;52.168;20.878;2024-01-11T16:11:18;25.50;;;8.60;;
50681;SDS011;36779;52.168;20.878;2024-01-11T16:14:29;17.60;;;7.20;;
50681;SDS011;36779;52.168;20.878;2024-01-11T16:17:22;21.40;;;7.70;;
50681;SDS011;36779;52.168;20.878;2024-01-11T17:05:07;26.70;;;11.00;;
50681;SDS011;36779;52.168;20.878;2024-01-11T17:52:23;14.70;;;6.60;;
50681;SDS011;36779;52.168;20.878;2024-01-11T18:29:01;8.10;;;4.00;;
50681;SDS011;36779;52.168;20.878;2024-01-11T19:16:52;15.80;;;4.70;;
50681;SDS011;36779;52.168;20.878;2024-01-11T20:09:52;11.60;;;4.00;;
50681;SDS011;36779;52.168;20.878;2024-01-11T20:12:50;9.50;;;4.20;;
50681;SDS011;36779;52.168;20.878;2024-01-11T20:16:01;9.90;;;3.90;;
50681;SDS011;36779;52.168;20.878;2024-01-11T20:18:42;15.40;;;5.00;;
50681;SDS011;36779;52.168;20.878;2024-01-11T20:21:34;15.40;;;5.40;;
50681;SDS011;36779;52.168;20.878;2024-01-11T20:24:29;12.50;;;4.20;;
50681;SDS011;36779;52.168;20.878;2024-01-11T20:27:21;18.90;;;4.60;;
50681;SDS011;36779;52.168;20.878;2024-01-11T20:39:54;4.60;;;1.90;;
50681;SDS011;36779;52.168;20.878;2024-01-11T20:42:40;8.90;;;2.50;;
50681;SDS011;36779;52.168;20.878;2024-01-11T20:45:32;4.80;;;2.00;;
50681;SDS011;36779;52.168;20.878;2024-01-11T20:48:38;8.10;;;2.90;;
50681;SDS011;36779;52.168;20.878;2024-01-11T20:51:32;6.60;;;3.10;;
50681;SDS011;36779;52.168;20.878;2024-01-11T20:54:32;12.60;;;4.60;;
50681;SDS011;36779;52.168;20.878;2024-01-11T20:57:28;18.20;;;5.20;;
50681;SDS011;36779;52.168;20.878;2024-01-11T21:00:24;16.70;;;5.60;;
50681;SDS011;36779;52.168;20.878;2024-01-11T21:03:24;12.20;;;4.10;;
50681;SDS011;36779;52.168;20.878;2024-01-11T21:06:40;9.60;;;3.50;;
50681;SDS011;36779;52.168;20.878;2024-01-11T21:09:47;8.20;;;3.50;;
50681;SDS011;36779;52.168;20.878;2024-01-11T21:12:40;13.00;;;3.40;;
50681;SDS011;36779;52.168;20.878;2024-01-11T21:15:35;9.60;;;3.40;;
50681;SDS011;36779;52.168;20.878;2024-01-11T21:18:38;14.10;;;4.10;;
50681;SDS011;36779;52.168;20.878;2024-01-11T22:11:14;15.50;;;4.90;;
50681;SDS011;36779;52.168;20.878;2024-01-11T23:06:19;11.50;;;2.40;;
50681;SDS011;36779;52.168;20.878;2024-01-11T23:09:40;7.40;;;2.70;;
50681;SDS011;36779;52.168;20.878;2024-01-11T23:13:05;12.00;;;2.60;;
50681;SDS011;36779;52.168;20.878;2024-01-11T23:16:02;7.10;;;2.10;;
50681;SDS011;36779;52.168;20.878;2024-01-11T23:19:03;7.00;;;2.50;;
50681;SDS011;36779;52.168;20.878;2024-01-11T23:23:43;5.40;;;1.40;;
50681;SDS011;36779;52.168;20.878;2024-01-11T23:36:35;7.10;;;1.20;;
50681;SDS011;36779;52.168;20.878;2024-01-11T23:39:32;3.80;;;1.20;;
50681;SDS011;36779;52.168;20.878;2024-01-11T23:42:27;5.10;;;1.80;;
50681;SDS011;36779;52.168;20.878;2024-01-11T23:45:22;7.10;;;1.80;;
50681;SDS011;36779;52.168;20.878;2024-01-11T23:48:16;7.00;;;2.10;;
50681;SDS011;36779;52.168;20.878;2024-01-11T23:51:29;8.20;;;2.40;;
50681;SDS011;36779;52.168;20.878;2024-01-11T23:54:23;9.60;;;2.60;;
50681;SDS011;36779;52.168;20.878;2024-01-11T23:57:25;11.10;;;2.30;;
